Terminal Aerodrome Forecast
Issued by NWS Louisville, KY

Home | Current Version | Previous Version | Text Only | Print | Product List | Glossary On
Versions: 1 2 3 4 5 6 7 8 9 10 11 12 13 14 15 16 17 18 19 20 21 22 23 24
000
FTUS43 KLMK 281100
TAFLEX
TAF
KLEX 281120Z 2812/2912 VRB03KT 5SM BR SCT250
     FM281600 29005KT P6SM SCT040
     FM290000 VRB03KT P6SM SCT080
     FM290500 00000KT 4SM BR SCT250=

USA.gov is the U.S. government's official web portal to all federal, state and local government web resources and services.